Time;durP1;ratioP1;P1;durP2;ratioP2;P2;SDS_P1;SDS_P2;PMS_P1;PMS_P2;Temp;Humidity;BMP_temperature;BMP_pressure;BME280_temperature;BME280_humidity;BME280_pressure;Samples;Min_cycle;Max_cycle;Signal;HPM_P1;HPM_P2
2021/08/28 00:01:15;;;;;;;39.25;22.83;;;13.70;99.90;;;;;;4955181;28;20031;-57
2021/08/28 00:03:41;;;;;;;38.53;23.55;;;13.70;99.90;;;;;;4952866;28;20087;-57
2021/08/28 00:06:06;;;;;;;30.88;22.77;;;13.70;99.90;;;;;;4956321;28;20035;-58
2021/08/28 00:08:32;;;;;;;38.13;23.73;;;13.70;99.90;;;;;;4953287;28;20101;-57
2021/08/28 00:10:57;;;;;;;36.05;24.67;;;13.70;99.90;;;;;;4957104;28;20032;-58
2021/08/28 00:13:23;;;;;;;37.03;25.10;;;13.70;99.90;;;;;;4957681;28;20037;-59
2021/08/28 00:15:49;;;;;;;34.97;27.30;;;13.70;99.90;;;;;;4957667;28;20027;-58
2021/08/28 00:18:15;;;;;;;44.20;26.52;;;13.70;99.90;;;;;;4954057;28;20031;-58
2021/08/28 00:20:41;;;;;;;43.95;28.63;;;13.70;99.90;;;;;;4955502;28;20086;-55
2021/08/28 00:23:07;;;;;;;40.70;29.10;;;13.70;99.90;;;;;;4953236;28;20031;-59
2021/08/28 00:25:34;;;;;;;42.13;28.33;;;13.70;99.90;;;;;;4922123;28;20023;-58
2021/08/28 00:28:00;;;;;;;47.15;29.40;;;13.70;99.90;;;;;;4955360;28;20476;-58
2021/08/28 00:30:27;;;;;;;46.25;31.23;;;13.60;99.90;;;;;;4955001;28;20039;-59
2021/08/28 00:32:52;;;;;;;42.78;30.85;;;13.70;99.90;;;;;;4950886;28;20482;-56
2021/08/28 00:35:18;;;;;;;50.35;31.45;;;13.60;99.90;;;;;;4951859;28;20058;-56
2021/08/28 00:37:43;;;;;;;45.65;32.20;;;13.60;99.90;;;;;;4951485;28;20583;-60
2021/08/28 00:40:10;;;;;;;46.75;30.90;;;13.50;99.90;;;;;;4949290;28;20115;-58
2021/08/28 00:42:46;;;;;;;49.88;33.58;;;13.50;99.90;;;;;;4948709;28;20082;-55
2021/08/28 00:45:12;;;;;;;48.38;32.97;;;13.40;99.90;;;;;;4948881;28;20027;-58
2021/08/28 00:47:38;;;;;;;54.00;34.20;;;13.40;99.90;;;;;;4949388;28;20023;-58
2021/08/28 00:50:04;;;;;;;57.90;35.97;;;13.40;99.90;;;;;;4952161;28;20429;-56
2021/08/28 00:52:29;;;;;;;60.20;35.85;;;13.40;99.90;;;;;;4951624;28;20027;-58
2021/08/28 00:54:55;;;;;;;56.10;34.67;;;13.40;99.90;;;;;;4947087;28;20066;-56
2021/08/28 00:57:21;;;;;;;61.80;37.80;;;13.40;99.90;;;;;;4947711;28;20041;-56
2021/08/28 00:59:47;;;;;;;63.78;38.03;;;13.40;99.90;;;;;;4950858;28;20031;-59
2021/08/28 01:02:13;;;;;;;62.25;37.42;;;13.40;99.90;;;;;;4947905;28;20090;-57
2021/08/28 01:04:53;;;;;;;62.10;36.80;;;13.40;99.90;;;;;;4948494;28;20492;-58
2021/08/28 01:07:37;;;;;;;71.97;40.47;;;13.50;99.90;;;;;;4952640;28;20445;-59
2021/08/28 01:10:06;;;;;;;65.75;38.50;;;13.50;99.90;;;;;;4952033;28;20390;-59
2021/08/28 01:12:38;;;;;;;61.45;38.95;;;13.50;99.90;;;;;;4952441;28;20660;-58
2021/08/28 01:15:06;;;;;;;63.60;39.42;;;13.50;99.90;;;;;;4950642;28;20041;-58
2021/08/28 01:17:34;;;;;;;69.72;40.70;;;13.50;99.90;;;;;;4950097;28;20019;-49
2021/08/28 01:20:15;;;;;;;83.22;44.40;;;13.60;99.90;;;;;;4948363;28;20078;-60
2021/08/28 01:22:41;;;;;;;81.22;45.45;;;13.60;99.90;;;;;;4948816;28;20079;-59
2021/08/28 01:25:08;;;;;;;76.07;46.38;;;13.60;99.90;;;;;;4949127;28;20031;-59
2021/08/28 01:27:49;;;;;;;78.88;47.20;;;13.60;99.90;;;;;;4949735;28;20485;-59
2021/08/28 01:30:15;;;;;;;81.60;48.28;;;13.60;99.90;;;;;;4951699;28;20027;-56
2021/08/28 01:32:44;;;;;;;84.05;50.05;;;13.60;99.90;;;;;;4984552;23;20133;-57
2021/08/28 01:35:10;;;;;;;78.90;48.53;;;13.60;99.90;;;;;;4989016;28;20546;-57
2021/08/28 01:37:40;;;;;;;85.18;48.08;;;13.60;99.90;;;;;;4989061;28;20042;-58
2021/08/28 01:40:07;;;;;;;79.43;46.22;;;13.60;99.90;;;;;;4990832;28;20400;-58
2021/08/28 01:42:35;;;;;;;80.47;47.60;;;13.60;99.90;;;;;;4975902;28;20015;-56
2021/08/28 01:45:02;;;;;;;88.22;49.03;;;13.60;99.90;;;;;;4972216;28;20081;-56
2021/08/28 01:47:29;;;;;;;83.18;45.50;;;13.70;99.90;;;;;;4969712;28;20030;-56
2021/08/28 01:49:55;;;;;;;88.30;46.65;;;13.60;99.90;;;;;;4972326;28;20119;-57
2021/08/28 01:52:22;;;;;;;77.43;45.53;;;13.60;99.90;;;;;;4983758;28;20045;-57
2021/08/28 01:54:49;;;;;;;80.70;45.85;;;13.60;99.90;;;;;;4977245;28;20065;-57
2021/08/28 01:57:15;;;;;;;82.00;46.22;;;13.60;99.90;;;;;;4978492;28;20057;-58
2021/08/28 01:59:41;;;;;;;77.32;45.03;;;13.60;99.90;;;;;;4966303;28;20500;-58
2021/08/28 02:02:07;;;;;;;76.63;47.95;;;13.60;99.90;;;;;;4979844;28;20057;-56
2021/08/28 02:04:35;;;;;;;73.72;46.38;;;13.60;99.90;;;;;;4978894;28;20057;-57
2021/08/28 02:07:22;;;;;;;74.72;44.65;;;13.70;99.90;;;;;;4969728;28;20034;-55
2021/08/28 02:09:58;;;;;;;72.95;42.92;;;13.70;99.90;;;;;;4980573;28;20031;-59
2021/08/28 02:12:33;;;;;;;70.72;45.13;;;13.70;99.90;;;;;;4984794;28;20030;-57
2021/08/28 02:15:08;;;;;;;78.72;44.75;;;13.70;99.90;;;;;;4965962;28;20034;-60
2021/08/28 02:17:46;;;;;;;69.97;44.08;;;13.70;99.90;;;;;;4982438;28;20522;-56
2021/08/28 02:20:15;;;;;;;69.90;41.67;;;13.70;99.90;;;;;;4976964;28;20097;-57
2021/08/28 02:22:47;;;;;;;66.10;42.90;;;13.70;99.90;;;;;;4983356;28;20037;-56
2021/08/28 02:25:20;;;;;;;72.63;42.67;;;13.70;99.90;;;;;;4970981;28;20027;-57
2021/08/28 02:27:48;;;;;;;62.20;41.53;;;13.80;99.90;;;;;;4982211;28;20026;-57
2021/08/28 02:30:17;;;;;;;67.07;43.25;;;13.80;99.90;;;;;;4976786;28;20045;-54
2021/08/28 02:32:49;;;;;;;65.68;41.53;;;13.80;99.90;;;;;;4974711;28;20031;-56
2021/08/28 02:35:15;;;;;;;71.57;41.90;;;13.80;99.90;;;;;;4975655;28;20050;-56
2021/08/28 02:37:42;;;;;;;63.92;41.53;;;13.80;99.90;;;;;;4974838;28;20070;-57
2021/08/28 02:40:11;;;;;;;60.65;38.10;;;13.80;99.90;;;;;;4983484;28;20546;-58
2021/08/28 02:42:41;;;;;;;72.63;42.05;;;13.80;99.90;;;;;;4990618;28;20423;-57
2021/08/28 02:45:08;;;;;;;61.67;39.22;;;13.80;99.90;;;;;;4980841;28;20018;-56
2021/08/28 02:47:35;;;;;;;62.88;38.45;;;13.90;99.90;;;;;;4964124;28;20042;-59
2021/08/28 02:50:02;;;;;;;64.05;39.05;;;13.80;99.90;;;;;;4978505;28;20033;-56
2021/08/28 02:52:28;;;;;;;69.13;39.28;;;13.90;99.90;;;;;;4981067;28;20043;-56
2021/08/28 02:54:58;;;;;;;71.00;39.80;;;13.90;99.90;;;;;;4981840;28;20127;-56
2021/08/28 02:57:26;;;;;;;64.47;39.08;;;13.90;99.90;;;;;;4979173;28;20504;-57
2021/08/28 02:59:52;;;;;;;61.85;38.72;;;13.90;99.90;;;;;;4983173;28;20023;-57
2021/08/28 03:02:18;;;;;;;67.85;38.83;;;13.90;99.90;;;;;;4981767;28;20035;-59
2021/08/28 03:04:45;;;;;;;54.25;36.33;;;13.80;99.90;;;;;;4975907;28;20477;-59
2021/08/28 03:07:12;;;;;;;67.15;37.95;;;13.90;99.90;;;;;;4984922;28;20049;-59
2021/08/28 03:09:39;;;;;;;59.70;38.47;;;13.90;99.90;;;;;;4976659;28;20117;-57
2021/08/28 03:12:05;;;;;;;64.22;38.60;;;13.90;99.90;;;;;;4983303;28;20054;-55
2021/08/28 03:14:31;;;;;;;60.60;35.63;;;13.90;99.90;;;;;;4982410;28;20050;-54
2021/08/28 03:16:58;;;;;;;60.65;37.53;;;13.90;99.90;;;;;;4982647;28;20034;-56
2021/08/28 03:19:26;;;;;;;66.47;36.60;;;13.90;99.90;;;;;;4981367;28;20035;-56
2021/08/28 03:21:53;;;;;;;68.55;38.83;;;13.90;99.90;;;;;;4978023;28;20030;-53
2021/08/28 03:24:27;;;;;;;61.15;36.78;;;13.90;99.90;;;;;;4971503;28;20026;-57
2021/08/28 03:26:53;;;;;;;;;;;13.90;99.90;;;;;;4975260;28;20056;-58
2021/08/28 03:29:21;;;;;;;59.60;33.88;;;13.90;99.90;;;;;;4964578;28;20290;-57
2021/08/28 03:31:48;;;;;;;66.13;38.35;;;13.90;99.90;;;;;;4983799;28;20110;-57
2021/08/28 03:34:14;;;;;;;67.85;39.70;;;13.90;99.90;;;;;;4984284;28;20034;-54
2021/08/28 03:36:41;;;;;;;63.88;37.53;;;13.80;99.90;;;;;;4975006;28;20084;-56
2021/08/28 03:39:06;;;;;;;64.07;37.38;;;13.90;99.90;;;;;;4986128;28;20026;-57
2021/08/28 03:41:32;;;;;;;60.85;36.40;;;13.80;99.90;;;;;;4980156;28;20403;-56
2021/08/28 03:43:58;;;;;;;71.35;38.47;;;13.80;99.90;;;;;;4979417;28;20440;-57
2021/08/28 03:46:24;;;;;;;64.45;35.97;;;13.80;99.90;;;;;;4984894;28;20035;-57
2021/08/28 03:48:49;;;;;;;68.32;36.15;;;13.80;99.90;;;;;;4974492;28;20019;-58
2021/08/28 03:51:15;;;;;;;66.28;36.95;;;13.80;99.90;;;;;;4978158;28;20539;-57
2021/08/28 03:53:41;;;;;;;68.32;37.70;;;13.80;99.90;;;;;;4967543;28;20436;-55
2021/08/28 03:56:06;;;;;;;66.35;37.88;;;13.80;99.90;;;;;;4982090;28;20030;-59
2021/08/28 03:58:33;;;;;;;69.32;37.17;;;13.80;99.90;;;;;;4977011;28;20035;-57
2021/08/28 04:00:58;;;;;;;65.38;37.05;;;13.80;99.90;;;;;;4976722;28;20027;-56
2021/08/28 04:03:24;;;;;;;75.05;39.20;;;13.80;99.90;;;;;;4980683;28;20177;-56
2021/08/28 04:05:50;;;;;;;73.78;40.50;;;13.80;99.90;;;;;;4983593;28;20062;-56
2021/08/28 04:08:15;;;;;;;68.00;39.33;;;13.80;99.90;;;;;;4975797;28;20051;-58
2021/08/28 04:10:41;;;;;;;76.00;40.15;;;13.80;99.90;;;;;;4975198;28;20035;-56
2021/08/28 04:13:06;;;;;;;74.18;39.53;;;13.80;99.90;;;;;;4980446;28;20516;-60
2021/08/28 04:15:32;;;;;;;73.32;39.38;;;13.80;99.90;;;;;;4973457;28;20413;-58
2021/08/28 04:17:57;;;;;;;79.13;41.28;;;13.80;99.90;;;;;;4981877;28;20104;-58
2021/08/28 04:20:23;;;;;;;70.18;39.35;;;13.80;99.90;;;;;;4974414;28;20034;-57
2021/08/28 04:22:48;;;;;;;73.50;40.28;;;13.80;99.90;;;;;;4983816;28;20096;-58
2021/08/28 04:25:14;;;;;;;70.35;39.38;;;13.80;99.90;;;;;;4982781;28;20038;-58
2021/08/28 04:27:40;;;;;;;71.68;38.55;;;13.80;99.90;;;;;;4973677;28;20038;-57
2021/08/28 04:30:07;;;;;;;77.85;38.00;;;13.80;99.90;;;;;;4977609;28;20033;-57
2021/08/28 04:32:33;;;;;;;71.28;38.92;;;13.80;99.90;;;;;;4983134;28;20049;-56
2021/08/28 04:34:59;;;;;;;75.82;40.03;;;13.80;99.90;;;;;;4980766;28;20036;-57
2021/08/28 04:37:24;;;;;;;73.63;40.58;;;13.70;99.90;;;;;;4980692;28;20030;-57
2021/08/28 04:39:50;;;;;;;72.70;38.78;;;13.80;99.90;;;;;;4974606;28;20054;-57
2021/08/28 04:42:15;;;;;;;75.85;39.00;;;13.70;99.90;;;;;;4988655;28;20045;-56
2021/08/28 04:44:41;;;;;;;78.85;38.38;;;13.70;99.90;;;;;;4978627;28;20085;-56
2021/08/28 04:47:06;;;;;;;86.43;40.58;;;13.70;99.90;;;;;;4976807;28;20605;-58
2021/08/28 04:49:32;;;;;;;81.05;40.35;;;13.70;99.90;;;;;;4983887;28;20027;-57
2021/08/28 04:51:59;;;;;;;87.95;41.38;;;13.70;99.90;;;;;;4983235;28;20031;-56
2021/08/28 04:54:25;;;;;;;87.97;41.35;;;13.70;99.90;;;;;;4985241;28;20109;-57
2021/08/28 04:56:51;;;;;;;81.82;39.85;;;13.70;99.90;;;;;;4976798;28;20030;-56
2021/08/28 04:59:17;;;;;;;87.10;40.28;;;13.70;99.90;;;;;;4973321;28;20037;-55
2021/08/28 05:01:42;;;;;;;91.90;41.80;;;13.70;99.90;;;;;;4975714;28;20043;-58
2021/08/28 05:04:08;;;;;;;90.22;40.35;;;13.70;99.90;;;;;;4978960;28;20026;-55
2021/08/28 05:06:34;;;;;;;84.40;40.47;;;13.70;99.90;;;;;;4976855;28;20542;-58
2021/08/28 05:08:59;;;;;;;106.85;40.95;;;13.70;99.90;;;;;;4981408;28;20023;-57
2021/08/28 05:11:25;;;;;;;92.50;41.55;;;13.70;99.90;;;;;;4968387;28;20046;-57
2021/08/28 05:13:50;;;;;;;85.75;40.45;;;13.70;99.90;;;;;;4973347;28;20023;-57
2021/08/28 05:16:16;;;;;;;96.47;42.13;;;13.80;99.90;;;;;;4974481;28;20041;-56
2021/08/28 05:18:41;;;;;;;89.53;40.40;;;13.80;99.90;;;;;;4977889;28;20031;-57
2021/08/28 05:21:07;;;;;;;100.78;41.80;;;13.80;99.90;;;;;;4975022;28;20035;-57
2021/08/28 05:23:33;;;;;;;87.07;38.80;;;13.80;99.90;;;;;;4969865;28;20033;-58
2021/08/28 05:25:59;;;;;;;90.97;40.83;;;13.80;99.90;;;;;;4966545;28;20562;-57
2021/08/28 05:28:24;;;;;;;87.90;42.22;;;13.90;99.90;;;;;;4979589;28;20022;-57
2021/08/28 05:30:50;;;;;;;83.20;38.50;;;13.90;99.90;;;;;;4973267;28;20114;-57
2021/08/28 05:33:16;;;;;;;94.00;39.90;;;13.90;99.90;;;;;;4977597;28;20074;-57
2021/08/28 05:35:42;;;;;;;81.47;38.10;;;13.90;99.90;;;;;;4984441;28;20034;-56
2021/08/28 05:38:08;;;;;;;87.80;40.08;;;14.00;99.90;;;;;;4981640;28;20027;-56
2021/08/28 05:40:33;;;;;;;78.65;38.72;;;14.00;99.90;;;;;;4972015;28;20105;-59
2021/08/28 05:42:59;;;;;;;78.63;36.70;;;14.10;99.90;;;;;;4982338;28;20026;-59
2021/08/28 05:45:25;;;;;;;75.95;36.50;;;14.10;99.90;;;;;;4983781;28;20034;-58
2021/08/28 05:47:50;;;;;;;78.55;38.05;;;14.10;99.90;;;;;;4979103;28;20041;-59
2021/08/28 05:50:16;;;;;;;74.78;37.63;;;14.20;99.90;;;;;;4977842;28;20030;-57
2021/08/28 05:52:42;;;;;;;81.32;37.33;;;14.20;99.90;;;;;;4981056;28;20031;-58
2021/08/28 05:55:10;;;;;;;76.03;35.90;;;14.20;99.90;;;;;;4984622;28;20026;-58
2021/08/28 05:57:38;;;;;;;70.88;35.30;;;14.20;99.90;;;;;;4973147;28;20077;-58
2021/08/28 06:00:04;;;;;;;78.80;35.58;;;14.30;99.90;;;;;;4977178;28;20092;-56
2021/08/28 06:02:30;;;;;;;72.13;34.97;;;14.30;99.90;;;;;;4972860;28;20015;-58
2021/08/28 06:04:56;;;;;;;60.20;32.05;;;14.30;99.90;;;;;;4978138;28;20387;-57
2021/08/28 06:07:21;;;;;;;66.20;33.00;;;14.40;99.90;;;;;;4977042;28;20035;-58
2021/08/28 06:09:47;;;;;;;63.50;30.80;;;14.30;99.90;;;;;;4979950;28;20382;-59
2021/08/28 06:12:12;;;;;;;63.25;30.90;;;14.30;99.90;;;;;;4981429;28;20026;-57
2021/08/28 06:14:38;;;;;;;60.20;32.75;;;14.40;99.90;;;;;;4970970;28;20511;-57
2021/08/28 06:17:03;;;;;;;50.42;29.00;;;14.40;99.90;;;;;;4975365;28;20395;-58
2021/08/28 06:19:29;;;;;;;55.70;30.05;;;14.40;99.90;;;;;;4980038;28;20396;-59
2021/08/28 06:21:54;;;;;;;54.83;29.85;;;14.50;99.90;;;;;;4971964;28;20513;-57
2021/08/28 06:24:20;;;;;;;50.80;25.65;;;14.50;99.90;;;;;;4977420;28;20499;-58
2021/08/28 06:26:46;;;;;;;47.50;27.13;;;14.50;99.90;;;;;;4981450;28;20031;-57
2021/08/28 06:29:11;;;;;;;40.38;25.92;;;14.60;99.90;;;;;;4977955;28;20025;-56
2021/08/28 06:31:37;;;;;;;48.33;27.75;;;14.60;99.90;;;;;;4972358;28;20038;-58
2021/08/28 06:34:02;;;;;;;46.53;24.83;;;14.60;99.90;;;;;;4979022;28;20058;-59
2021/08/28 06:36:28;;;;;;;39.80;23.45;;;14.60;99.90;;;;;;4979628;28;20089;-58
2021/08/28 06:38:53;;;;;;;61.63;30.45;;;14.60;99.90;;;;;;4977528;28;20494;-58
2021/08/28 06:41:19;;;;;;;62.92;35.00;;;14.70;99.90;;;;;;4972336;28;20037;-57
2021/08/28 06:43:44;;;;;;;67.43;36.08;;;14.70;99.90;;;;;;4980021;28;20029;-57
2021/08/28 06:46:10;;;;;;;76.15;36.47;;;14.70;99.90;;;;;;4980153;28;20034;-57
2021/08/28 06:48:35;;;;;;;65.50;35.55;;;14.70;99.90;;;;;;4980255;28;20030;-57
2021/08/28 06:51:01;;;;;;;70.03;36.22;;;14.70;99.90;;;;;;4978263;28;20048;-58
2021/08/28 06:53:26;;;;;;;65.15;35.42;;;14.60;99.90;;;;;;4983242;28;20057;-58
2021/08/28 06:55:52;;;;;;;62.38;33.10;;;14.70;99.90;;;;;;4984797;28;20081;-58
2021/08/28 06:58:18;;;;;;;64.45;34.60;;;14.70;99.90;;;;;;4984666;28;20495;-57
2021/08/28 07:00:43;;;;;;;47.60;26.92;;;14.60;99.90;;;;;;4949094;28;20062;-57
2021/08/28 07:03:09;;;;;;;56.75;28.92;;;14.60;99.90;;;;;;4971211;28;20031;-57
2021/08/28 07:05:35;;;;;;;41.20;25.17;;;14.60;99.90;;;;;;4969035;28;20042;-58
2021/08/28 07:08:01;;;;;;;44.17;25.95;;;14.60;99.90;;;;;;4979243;28;20033;-58
2021/08/28 07:10:26;;;;;;;29.80;19.35;;;14.60;99.90;;;;;;4985417;28;20025;-57
2021/08/28 07:12:52;;;;;;;31.75;20.15;;;14.60;99.90;;;;;;4978574;28;20362;-57
2021/08/28 07:15:18;;;;;;;24.52;15.93;;;14.60;99.90;;;;;;4981208;28;20077;-58
2021/08/28 07:17:44;;;;;;;20.05;14.13;;;14.60;99.90;;;;;;4978104;28;20384;-58
2021/08/28 07:20:10;;;;;;;23.15;15.48;;;14.70;99.90;;;;;;4987580;28;20034;-57
2021/08/28 07:22:36;;;;;;;18.48;14.25;;;14.80;99.90;;;;;;4978449;28;20045;-59
2021/08/28 07:25:03;;;;;;;19.33;15.05;;;14.90;99.90;;;;;;4982317;28;20479;-58
2021/08/28 07:27:29;;;;;;;18.10;13.13;;;15.00;99.90;;;;;;4979458;28;20039;-58
2021/08/28 07:29:54;;;;;;;17.95;12.80;;;15.10;99.90;;;;;;4978533;28;20029;-57
2021/08/28 07:32:20;;;;;;;15.73;10.80;;;15.20;99.90;;;;;;4979313;28;20271;-59
2021/08/28 07:34:47;;;;;;;18.45;11.13;;;15.40;99.90;;;;;;4983211;28;20023;-57
2021/08/28 07:37:13;;;;;;;9.80;8.55;;;15.50;99.90;;;;;;4977306;28;20066;-58
2021/08/28 07:39:39;;;;;;;12.18;10.15;;;15.50;99.90;;;;;;4980067;28;20045;-58
2021/08/28 07:42:05;;;;;;;12.93;9.13;;;15.50;99.90;;;;;;4978334;28;20031;-58
2021/08/28 07:44:31;;;;;;;10.52;7.68;;;15.30;99.90;;;;;;4982242;28;20074;-58
2021/08/28 07:46:57;;;;;;;9.00;7.00;;;15.20;99.90;;;;;;4978083;28;20022;-58
2021/08/28 07:49:23;;;;;;;7.43;5.82;;;15.20;99.90;;;;;;4976502;28;20035;-57
2021/08/28 07:51:49;;;;;;;8.85;6.55;;;15.30;99.90;;;;;;4982993;28;20042;-58
2021/08/28 07:54:15;;;;;;;7.00;5.50;;;15.30;99.90;;;;;;4979471;28;20022;-58
2021/08/28 07:56:41;;;;;;;7.43;5.22;;;15.50;99.90;;;;;;4977690;28;20081;-60
2021/08/28 07:59:07;;;;;;;7.50;5.30;;;15.80;99.90;;;;;;4982499;28;20480;-59
2021/08/28 08:01:32;;;;;;;6.07;4.55;;;15.90;99.90;;;;;;4964156;28;20065;-59
2021/08/28 08:03:58;;;;;;;7.25;4.47;;;16.00;99.90;;;;;;4980988;28;20032;-59
2021/08/28 08:06:24;;;;;;;6.95;5.30;;;16.00;99.90;;;;;;4979476;28;20033;-59
2021/08/28 08:08:50;;;;;;;5.93;4.60;;;16.10;99.90;;;;;;4981744;28;20596;-59
2021/08/28 08:11:17;;;;;;;4.45;3.03;;;16.00;99.90;;;;;;4980294;28;20108;-59
2021/08/28 08:13:43;;;;;;;6.50;3.22;;;16.00;99.90;;;;;;4982445;28;20161;-58
2021/08/28 08:16:10;;;;;;;6.20;3.03;;;16.10;99.90;;;;;;4973420;28;20076;-59
2021/08/28 08:18:36;;;;;;;5.30;2.85;;;16.20;99.90;;;;;;4987050;28;20668;-59
2021/08/28 08:21:01;;;;;;;4.68;2.17;;;16.30;99.90;;;;;;4971741;28;20037;-56
2021/08/28 08:23:27;;;;;;;3.88;2.90;;;16.20;99.90;;;;;;4982707;28;20022;-58
2021/08/28 08:25:52;;;;;;;3.17;2.45;;;16.40;99.90;;;;;;4974679;28;20475;-59
2021/08/28 08:28:18;;;;;;;7.97;2.65;;;16.40;99.90;;;;;;4981011;28;20038;-58
2021/08/28 08:30:44;;;;;;;4.22;3.15;;;16.50;99.90;;;;;;4981228;28;20102;-57
2021/08/28 08:33:09;;;;;;;4.55;2.78;;;16.40;99.90;;;;;;4978611;28;20070;-57
2021/08/28 08:35:35;;;;;;;4.00;2.58;;;16.40;99.90;;;;;;4980835;28;20023;-58
2021/08/28 08:38:02;;;;;;;3.20;2.65;;;16.30;99.90;;;;;;4971530;28;20026;-58
2021/08/28 08:40:30;;;;;;;2.95;2.35;;;16.30;99.90;;;;;;4974223;28;20122;-59
2021/08/28 08:42:57;;;;;;;3.42;2.17;;;16.40;99.90;;;;;;4983299;28;20502;-58
2021/08/28 08:45:27;;;;;;;7.05;2.40;;;16.60;99.90;;;;;;4974457;28;20117;-59
2021/08/28 08:47:54;;;;;;;2.83;2.05;;;16.70;99.90;;;;;;4967220;28;20035;-59
2021/08/28 08:50:21;;;;;;;3.10;2.35;;;16.70;99.90;;;;;;4967221;28;20512;-55
2021/08/28 08:52:53;;;;;;;7.10;2.65;;;16.80;99.90;;;;;;4982167;28;20035;-59
2021/08/28 08:55:21;;;;;;;5.80;2.80;;;16.70;99.90;;;;;;4977436;28;20022;-58
2021/08/28 08:57:47;;;;;;;3.90;2.70;;;16.70;99.90;;;;;;4975564;28;20041;-58
2021/08/28 09:00:14;;;;;;;3.67;3.15;;;16.70;99.90;;;;;;4975495;28;20114;-58
2021/08/28 09:02:41;;;;;;;5.43;3.22;;;16.60;99.90;;;;;;4962022;28;20074;-58
2021/08/28 09:05:07;;;;;;;4.13;3.28;;;16.60;99.90;;;;;;4976341;28;20057;-57
2021/08/28 09:07:32;;;;;;;5.70;3.50;;;16.70;99.90;;;;;;4971107;28;20463;-55
2021/08/28 09:09:58;;;;;;;5.60;3.22;;;16.90;99.90;;;;;;4979941;28;20054;-55
2021/08/28 09:12:37;;;;;;;3.78;2.90;;;17.30;99.90;;;;;;4971236;28;20031;-57
2021/08/28 09:15:05;;;;;;;5.38;3.08;;;17.70;99.90;;;;;;4970844;28;20023;-57
2021/08/28 09:17:31;;;;;;;4.22;2.97;;;17.80;99.90;;;;;;4968841;28;20440;-58
2021/08/28 09:19:56;;;;;;;5.43;3.20;;;18.00;99.90;;;;;;4968485;28;20019;-58
2021/08/28 09:22:33;;;;;;;5.13;2.85;;;18.20;99.90;;;;;;4969058;28;20042;-58
2021/08/28 09:25:01;;;;;;;7.15;2.90;;;18.20;99.90;;;;;;4969833;28;20031;-58
2021/08/28 09:27:46;;;;;;;4.70;3.15;;;18.50;99.90;;;;;;4963478;28;20027;-58
2021/08/28 09:30:21;;;;;;;3.70;2.80;;;18.60;99.90;;;;;;4967156;28;20070;-58
2021/08/28 09:33:04;;;;;;;3.05;2.55;;;18.80;99.90;;;;;;4974238;28;20038;-58
2021/08/28 09:35:35;;;;;;;5.03;3.25;;;18.60;99.90;;;;;;4979483;28;20074;-57
2021/08/28 09:38:05;;;;;;;7.38;3.58;;;18.40;99.90;;;;;;4977155;28;20085;-57
2021/08/28 09:40:36;;;;;;;5.63;3.13;;;18.30;99.90;;;;;;4980116;28;20081;-58
2021/08/28 09:43:05;;;;;;;6.65;3.10;;;18.00;99.90;;;;;;4971436;28;20030;-59
2021/08/28 09:45:31;;;;;;;4.45;3.35;;;17.80;99.90;;;;;;4971961;28;20063;-57
2021/08/28 09:47:57;;;;;;;6.60;3.55;;;17.40;99.90;;;;;;4974032;28;20147;-58
2021/08/28 09:50:30;;;;;;;4.32;3.20;;;17.40;99.90;;;;;;4979311;28;20046;-58
2021/08/28 09:53:05;;;;;;;4.70;3.00;;;17.20;99.90;;;;;;4981307;28;20041;-60
2021/08/28 09:55:32;;;;;;;4.72;3.50;;;17.10;99.90;;;;;;4972433;28;20053;-57
2021/08/28 09:57:59;;;;;;;4.82;3.15;;;17.20;99.90;;;;;;4974074;28;20497;-57
2021/08/28 10:00:24;;;;;;;8.73;3.70;;;17.20;99.90;;;;;;4970894;28;20027;-58
2021/08/28 10:03:00;;;;;;;6.88;3.53;;;17.20;99.90;;;;;;4953210;28;20464;-58
2021/08/28 10:05:27;;;;;;;4.88;3.45;;;17.10;99.90;;;;;;4971053;28;20027;-58
2021/08/28 10:07:57;;;;;;;8.98;3.80;;;17.20;99.90;;;;;;4967895;28;20183;-58
2021/08/28 10:10:23;;;;;;;4.57;3.92;;;17.20;99.90;;;;;;4968001;28;20058;-57
2021/08/28 10:12:49;;;;;;;5.47;3.55;;;17.60;99.90;;;;;;4962950;28;20030;-58
2021/08/28 10:15:17;;;;;;;9.18;3.75;;;17.80;99.90;;;;;;4968936;28;20035;-57
2021/08/28 10:17:43;;;;;;;4.15;3.42;;;18.30;99.90;;;;;;4970551;28;20523;-59
2021/08/28 10:20:09;;;;;;;5.80;3.97;;;18.60;99.90;;;;;;4967488;28;20061;-56
2021/08/28 10:22:36;;;;;;;5.03;3.67;;;18.80;99.90;;;;;;4949571;28;20171;-57
2021/08/28 10:25:07;;;;;;;5.65;4.43;;;19.20;99.90;;;;;;4969173;28;20105;-59
2021/08/28 10:27:33;;;;;;;12.00;4.80;;;19.40;99.90;;;;;;4966141;28;20506;-59
2021/08/28 10:29:59;;;;;;;5.43;4.50;;;19.80;99.90;;;;;;4973201;28;21200;-58
2021/08/28 10:32:25;;;;;;;5.50;3.92;;;20.00;99.90;;;;;;4971476;28;20174;-58
2021/08/28 10:34:51;;;;;;;6.78;3.85;;;20.20;99.90;;;;;;4975449;28;20054;-58
2021/08/28 10:37:17;;;;;;;6.35;4.00;;;20.30;99.90;;;;;;4978555;28;20120;-58
2021/08/28 10:39:45;;;;;;;4.90;3.97;;;20.20;99.90;;;;;;4974109;28;20037;-57
2021/08/28 10:42:11;;;;;;;5.03;4.00;;;20.30;99.90;;;;;;4975950;28;20030;-58
2021/08/28 10:44:39;;;;;;;5.78;4.88;;;20.50;99.90;;;;;;4973763;28;20023;-57
2021/08/28 10:47:11;;;;;;;5.30;4.15;;;20.30;99.90;;;;;;4976847;28;20018;-58
2021/08/28 10:49:41;;;;;;;5.07;4.57;;;20.30;99.90;;;;;;4977327;28;20025;-57
2021/08/28 10:52:19;;;;;;;5.13;4.07;;;20.10;99.90;;;;;;4975271;28;20396;-58
2021/08/28 10:54:57;;;;;;;5.68;4.25;;;20.10;99.90;;;;;;4968716;28;20026;-56
2021/08/28 10:57:26;;;;;;;5.05;4.55;;;20.00;99.90;;;;;;4975951;28;20376;-57
2021/08/28 11:00:10;;;;;;;5.65;4.18;;;19.60;99.90;;;;;;4974808;28;20169;-57
2021/08/28 11:02:53;;;;;;;7.97;4.70;;;19.40;99.90;;;;;;4957551;28;20047;-58
2021/08/28 11:05:27;;;;;;;7.63;4.47;;;19.10;99.90;;;;;;4970163;28;20484;-57
2021/08/28 11:07:56;;;;;;;6.03;4.90;;;19.20;99.90;;;;;;4974553;28;20125;-57
2021/08/28 11:10:27;;;;;;;4.40;4.00;;;19.10;99.90;;;;;;4976330;28;20041;-58
2021/08/28 11:13:05;;;;;;;7.07;4.55;;;19.10;99.90;;;;;;4983042;28;20023;-58
2021/08/28 11:15:33;;;;;;;5.72;4.45;;;19.00;99.90;;;;;;4976448;28;20082;-57
2021/08/28 11:18:10;;;;;;;6.15;4.03;;;18.80;99.90;;;;;;4975725;28;20447;-59
2021/08/28 11:20:39;;;;;;;5.82;4.50;;;18.90;99.90;;;;;;4972580;28;20031;-58
2021/08/28 11:23:11;;;;;;;10.73;4.57;;;18.70;99.90;;;;;;4974125;28;20404;-59
2021/08/28 11:25:40;;;;;;;7.32;4.65;;;18.70;99.90;;;;;;4973167;28;20023;-58
2021/08/28 11:28:06;;;;;;;7.28;4.00;;;18.70;99.90;;;;;;4975196;28;20019;-58
2021/08/28 11:30:44;;;;;;;6.30;4.40;;;18.60;99.90;;;;;;4974918;28;20054;-56
2021/08/28 11:33:16;;;;;;;6.40;4.47;;;18.50;99.90;;;;;;4971871;28;20038;-58
2021/08/28 11:35:47;;;;;;;6.57;4.65;;;18.30;99.90;;;;;;4974632;28;20105;-55
2021/08/28 11:38:13;;;;;;;6.45;4.85;;;18.00;99.90;;;;;;4972098;28;20582;-56
2021/08/28 11:40:39;;;;;;;5.50;4.78;;;18.00;99.90;;;;;;4969533;28;20043;-57
2021/08/28 11:43:09;;;;;;;5.72;4.85;;;18.00;99.90;;;;;;4975357;28;20097;-59
2021/08/28 11:45:37;;;;;;;6.88;4.53;;;17.90;99.90;;;;;;4972418;28;20023;-57
2021/08/28 11:48:11;;;;;;;5.88;5.03;;;18.00;99.90;;;;;;4979435;28;20055;-58
2021/08/28 11:50:38;;;;;;;5.30;4.18;;;18.10;99.90;;;;;;4974307;28;20077;-57
2021/08/28 11:53:05;;;;;;;8.25;4.45;;;18.30;99.90;;;;;;4977519;28;20019;-58
2021/08/28 11:55:36;;;;;;;5.55;4.72;;;18.50;99.90;;;;;;4975253;28;20026;-57
2021/08/28 11:58:08;;;;;;;7.00;4.20;;;18.70;99.90;;;;;;4971116;28;20027;-57
2021/08/28 12:00:35;;;;;;;6.18;4.47;;;18.80;99.90;;;;;;4973522;28;20023;-59
2021/08/28 12:03:03;;;;;;;6.38;4.00;;;18.90;99.90;;;;;;4969589;28;20029;-58
2021/08/28 12:05:30;;;;;;;7.50;3.92;;;18.90;99.90;;;;;;4952348;28;20046;-57
2021/08/28 12:07:56;;;;;;;4.60;3.80;;;19.30;99.90;;;;;;4974657;28;20019;-57
2021/08/28 12:36:00;;;;;;;7.15;3.25;;;20.40;99.90;;;;;;4955057;28;20082;-56
2021/08/28 12:38:30;;;;;;;4.25;2.95;;;20.40;99.90;;;;;;4971934;28;20039;-58
2021/08/28 12:40:57;;;;;;;6.53;3.13;;;20.60;99.90;;;;;;4973890;28;20035;-58
2021/08/28 12:43:24;;;;;;;5.78;3.03;;;20.70;99.90;;;;;;4949451;28;20066;-57
2021/08/28 12:45:52;;;;;;;5.15;3.00;;;20.50;99.90;;;;;;4947144;28;20035;-59
2021/08/28 12:48:18;;;;;;;4.22;2.92;;;20.00;99.90;;;;;;4972940;23;20054;-57
2021/08/28 12:50:44;;;;;;;4.15;2.70;;;19.90;99.90;;;;;;4971043;28;20030;-58
2021/08/28 12:53:09;;;;;;;2.95;2.20;;;19.40;99.90;;;;;;4972548;28;20027;-60
2021/08/28 12:55:35;;;;;;;6.10;2.50;;;19.40;99.90;;;;;;4972587;28;20034;-58
2021/08/28 12:58:03;;;;;;;3.80;2.28;;;19.20;99.90;;;;;;4962764;28;20043;-60
2021/08/28 13:00:38;;;;;;;4.13;3.00;;;19.40;99.90;;;;;;4952306;29;20038;-59
2021/08/28 13:03:04;;;;;;;5.15;2.90;;;19.40;99.90;;;;;;4950337;29;20026;-59